Time;durP1;ratioP1;P1;durP2;ratioP2;P2;SDS_P1;SDS_P2;PMS_P1;PMS_P2;Temp;Humidity;BMP_temperature;BMP_pressure;BME280_temperature;BME280_humidity;BME280_pressure;Samples;Min_cycle;Max_cycle;Signal;HPM_P1;HPM_P2
2023/04/05 00:04:01;;;;;;;19.27;9.87;;;-2.40;99.90;;;;;;8292355;28;20209;-78
2023/04/05 00:08:22;;;;;;;18.97;9.63;;;-2.40;99.90;;;;;;8283242;28;20183;-78
2023/04/05 00:12:23;;;;;;;20.40;9.57;;;-2.50;99.90;;;;;;8278312;28;20203;-78
2023/04/05 00:16:28;;;;;;;20.43;9.73;;;-2.50;99.90;;;;;;8286311;28;20201;-77
2023/04/05 00:20:32;;;;;;;21.30;9.47;;;-2.50;99.90;;;;;;8291331;28;20197;-77
2023/04/05 00:24:37;;;;;;;22.07;9.77;;;-2.40;99.90;;;;;;8288092;28;20191;-78
2023/04/05 00:28:51;;;;;;;15.80;8.70;;;-2.30;99.90;;;;;;8289467;28;20252;-78
2023/04/05 00:32:52;;;;;;;19.60;9.50;;;-2.40;99.90;;;;;;8294985;28;20194;-78
2023/04/05 00:36:53;;;;;;;15.77;8.37;;;-2.50;99.90;;;;;;8311694;28;20240;-78
2023/04/05 00:41:00;;;;;;;18.53;8.63;;;-2.50;99.90;;;;;;8289911;28;20218;-77
2023/04/05 00:45:01;;;;;;;16.27;7.63;;;-2.50;99.90;;;;;;8300102;28;20206;-77
2023/04/05 00:49:03;;;;;;;17.10;8.27;;;-2.60;99.90;;;;;;8338011;28;20365;-77
2023/04/05 00:53:04;;;;;;;18.00;8.03;;;-2.70;99.90;;;;;;8319289;28;20273;-78
2023/04/05 00:57:06;;;;;;;17.43;8.83;;;-2.80;99.90;;;;;;8344241;28;20222;-78
2023/04/05 01:01:22;;;;;;;14.83;8.23;;;-2.90;99.90;;;;;;8316478;28;20245;-77
2023/04/05 01:05:44;;;;;;;15.97;8.13;;;-2.90;99.90;;;;;;8302467;28;20195;-78
2023/04/05 01:09:55;;;;;;;20.60;8.60;;;-3.00;99.90;;;;;;8282153;28;20202;-78
2023/04/05 01:14:02;;;;;;;16.47;7.33;;;-3.10;99.90;;;;;;8289368;28;20187;-77
2023/04/05 01:18:03;;;;;;;15.67;7.70;;;-3.20;99.90;;;;;;8304482;28;20185;-78
2023/04/05 01:22:30;;;;;;;18.03;7.83;;;-3.20;1.00;;;;;;8285927;28;20249;-77
2023/04/05 01:26:45;;;;;;;15.27;7.20;;;-3.30;1.00;;;;;;8273248;28;20284;-78
2023/04/05 01:31:28;;;;;;;14.87;7.60;;;-3.40;1.00;;;;;;8282390;28;20218;-77
2023/04/05 01:35:47;;;;;;;15.10;6.57;;;-3.40;1.00;;;;;;8295099;28;20220;-78
2023/04/05 01:39:49;;;;;;;15.27;6.87;;;-3.40;1.00;;;;;;8279669;28;20260;-78
2023/04/05 01:43:50;;;;;;;12.73;6.77;;;-3.50;1.00;;;;;;8285628;28;20197;-77
2023/04/05 01:47:52;;;;;;;15.43;6.43;;;-3.60;1.00;;;;;;8281358;28;20217;-78
2023/04/05 01:51:53;;;;;;;11.73;6.27;;;-3.60;1.00;;;;;;8305420;28;20442;-78
2023/04/05 01:55:58;;;;;;;12.77;6.13;;;-3.70;1.00;;;;;;8288358;28;20206;-77
2023/04/05 02:00:08;;;;;;;10.20;5.53;;;-3.70;1.00;;;;;;8298265;28;20218;-77
2023/04/05 02:04:09;;;;;;;11.83;5.50;;;-3.70;1.00;;;;;;8286834;28;20301;-77
2023/04/05 02:08:10;;;;;;;11.40;6.40;;;-3.70;1.00;;;;;;8299007;28;20196;-77
2023/04/05 02:12:13;;;;;;;11.87;6.47;;;-3.70;6.40;;;;;;8298936;28;20245;-77
2023/04/05 02:16:22;;;;;;;12.77;6.07;;;-3.60;21.10;;;;;;8284635;28;20190;-78
2023/04/05 02:20:35;;;;;;;14.47;6.40;;;-3.60;35.60;;;;;;8296899;28;20194;-77
2023/04/05 02:24:36;;;;;;;12.50;6.40;;;-3.50;96.40;;;;;;8278996;28;20194;-77
2023/04/05 02:28:37;;;;;;;10.97;6.03;;;-3.50;58.30;;;;;;8286950;28;20198;-76
2023/04/05 02:32:48;;;;;;;12.93;6.77;;;-3.40;76.00;;;;;;8293893;28;20205;-76
2023/04/05 02:36:50;;;;;;;15.70;7.37;;;-3.20;99.90;;;;;;8314924;28;20277;-77
2023/04/05 02:40:51;;;;;;;15.83;7.33;;;-3.10;36.40;;;;;;8311003;28;20212;-77
2023/04/05 02:44:52;;;;;;;14.37;7.23;;;-3.10;29.90;;;;;;8316543;28;20182;-78
2023/04/05 02:48:53;;;;;;;14.30;7.27;;;-3.10;29.30;;;;;;8312245;28;20214;-76
2023/04/05 02:52:55;;;;;;;14.37;8.00;;;-3.10;22.30;;;;;;8301181;28;20201;-78
2023/04/05 02:57:01;;;;;;;14.63;6.90;;;-3.10;1.00;;;;;;8292466;28;20399;-78
2023/04/05 03:01:08;;;;;;;13.30;6.50;;;-3.10;1.00;;;;;;8295912;28;20195;-77
2023/04/05 03:05:09;;;;;;;14.77;7.00;;;-3.10;1.00;;;;;;8307114;28;20187;-77
2023/04/05 03:09:13;;;;;;;11.03;6.30;;;-3.10;1.00;;;;;;8290221;28;20261;-77
2023/04/05 03:13:14;;;;;;;9.90;6.03;;;-3.20;1.00;;;;;;8292941;28;20187;-77
2023/04/05 03:17:16;;;;;;;13.13;6.50;;;-3.10;5.90;;;;;;8292397;28;20187;-78
2023/04/05 03:21:17;;;;;;;11.80;5.73;;;-3.00;1.00;;;;;;8290996;28;20281;-77
2023/04/05 03:25:18;;;;;;;12.53;5.40;;;-2.90;1.00;;;;;;8292520;28;20271;-77
2023/04/05 03:29:39;;;;;;;12.13;5.37;;;-2.90;1.00;;;;;;8291969;28;20222;-77
2023/04/05 03:33:45;;;;;;;8.23;5.23;;;-2.90;1.00;;;;;;8290773;28;20206;-77
2023/04/05 03:37:46;;;;;;;11.00;4.80;;;-2.80;1.00;;;;;;8289904;28;20178;-77
2023/04/05 03:41:48;;;;;;;10.27;5.60;;;-2.70;1.00;;;;;;8295213;28;20197;-77
2023/04/05 03:45:50;;;;;;;10.93;5.23;;;-2.60;1.00;;;;;;8290068;28;20186;-77
2023/04/05 03:49:51;;;;;;;7.97;5.33;;;-2.50;1.00;;;;;;8291372;28;20253;-77
2023/04/05 03:53:52;;;;;;;11.93;5.17;;;-2.50;1.00;;;;;;8295127;28;20186;-76
2023/04/05 03:57:54;;;;;;;9.07;4.70;;;-2.40;1.00;;;;;;8307826;28;20393;-77
2023/04/05 04:01:57;;;;;;;11.63;6.17;;;-2.30;1.00;;;;;;8301922;28;20284;-76
2023/04/05 04:06:02;;;;;;;15.77;6.40;;;-2.20;1.00;;;;;;8328481;28;20186;-76
2023/04/05 04:10:04;;;;;;;10.83;5.93;;;-2.10;1.00;;;;;;8345890;28;20229;-76
2023/04/05 04:14:05;;;;;;;12.70;6.97;;;-2.10;99.90;;;;;;8320292;28;20178;-76
2023/04/05 04:18:07;;;;;;;9.77;4.97;;;-2.10;99.90;;;;;;8324130;28;20202;-77
2023/04/05 04:22:09;;;;;;;13.40;6.73;;;-2.00;99.90;;;;;;8305508;28;20206;-77
2023/04/05 04:26:10;;;;;;;14.83;7.87;;;-2.00;99.90;;;;;;8314425;28;20186;-77
2023/04/05 04:30:13;;;;;;;14.73;7.30;;;-2.00;99.90;;;;;;8295370;28;20222;-77
2023/04/05 04:34:17;;;;;;;12.33;7.10;;;-2.00;99.90;;;;;;8290463;28;20190;-77
2023/04/05 04:38:19;;;;;;;13.63;5.57;;;-2.00;99.90;;;;;;8292169;28;20202;-76
2023/04/05 04:42:21;;;;;;;13.43;5.97;;;-1.90;99.90;;;;;;8290252;28;20226;-76
2023/04/05 04:46:33;;;;;;;13.80;6.23;;;-1.90;99.90;;;;;;8294057;28;20194;-77
2023/04/05 04:50:34;;;;;;;12.47;6.10;;;-1.80;99.90;;;;;;8291508;28;20218;-78
2023/04/05 04:54:35;;;;;;;13.20;6.40;;;-1.80;99.90;;;;;;8306627;28;20192;-77
2023/04/05 04:58:36;;;;;;;12.50;5.77;;;-1.80;99.90;;;;;;8291069;28;20329;-77
2023/04/05 05:02:38;;;;;;;12.77;5.83;;;-1.70;99.90;;;;;;8295867;28;20244;-76
2023/04/05 05:06:39;;;;;;;11.70;6.07;;;-1.50;99.90;;;;;;8286857;28;20177;-76
2023/04/05 05:10:45;;;;;;;9.70;5.60;;;-1.30;99.90;;;;;;8287099;28;20211;-76
2023/04/05 05:14:46;;;;;;;11.33;6.10;;;-1.20;99.90;;;;;;8289743;28;20192;-76
2023/04/05 05:18:49;;;;;;;12.47;6.10;;;-1.10;99.90;;;;;;8288900;28;20219;-77
2023/04/05 05:22:54;;;;;;;10.60;5.67;;;-1.00;99.90;;;;;;8301284;28;20223;-77
2023/04/05 05:26:55;;;;;;;13.33;6.07;;;-0.90;99.90;;;;;;8321288;28;20181;-78
2023/04/05 05:30:56;;;;;;;15.33;6.80;;;-0.70;99.90;;;;;;8326180;28;20318;-78
2023/04/05 05:34:57;;;;;;;10.50;5.50;;;-0.60;99.90;;;;;;8316614;28;20204;-78
2023/04/05 05:38:58;;;;;;;10.23;5.47;;;-0.60;99.90;;;;;;8294877;28;20183;-78
2023/04/05 05:43:00;;;;;;;11.13;5.67;;;-0.40;99.90;;;;;;8286680;28;20188;-78
2023/04/05 05:47:02;;;;;;;11.30;5.80;;;-0.20;99.90;;;;;;8282144;28;20186;-78
2023/04/05 05:51:08;;;;;;;14.30;6.53;;;0.00;99.90;;;;;;8288023;28;20214;-77
2023/04/05 05:55:14;;;;;;;12.27;6.23;;;0.00;99.90;;;;;;8287808;28;20190;-77
2023/04/05 05:59:15;;;;;;;9.63;6.27;;;0.20;99.90;;;;;;8298262;28;20259;-77
2023/04/05 06:03:17;;;;;;;9.67;5.50;;;0.20;99.90;;;;;;8281740;28;20221;-77
2023/04/05 06:07:22;;;;;;;15.23;6.20;;;0.40;99.90;;;;;;8286920;28;20194;-77
2023/04/05 06:11:24;;;;;;;12.33;6.33;;;0.60;99.90;;;;;;8287384;28;20210;-76
2023/04/05 06:15:26;;;;;;;12.00;5.67;;;0.70;99.90;;;;;;8297774;28;20288;-77
2023/04/05 06:19:27;;;;;;;13.07;5.93;;;0.90;99.90;;;;;;8281875;28;20208;-77
2023/04/05 06:23:47;;;;;;;11.20;5.47;;;1.00;99.90;;;;;;8284903;28;20182;-77
2023/04/05 06:28:00;;;;;;;11.30;5.83;;;1.30;99.90;;;;;;8281726;28;20217;-77
2023/04/05 06:32:01;;;;;;;9.67;5.87;;;1.30;99.90;;;;;;8288452;28;20210;-77
2023/04/05 06:36:08;;;;;;;8.10;4.70;;;1.30;99.90;;;;;;8288379;28;20213;-77
2023/04/05 06:40:16;;;;;;;14.93;5.47;;;1.50;99.90;;;;;;8290163;28;20194;-77
2023/04/05 06:44:17;;;;;;;10.23;5.50;;;1.80;99.90;;;;;;8285685;28;20217;-79
2023/04/05 06:48:22;;;;;;;10.13;5.67;;;2.00;93.70;;;;;;8284532;28;20189;-77
2023/04/05 06:52:23;;;;;;;9.77;5.50;;;2.30;78.40;;;;;;8295153;28;20272;-76
2023/04/05 06:56:28;;;;;;;10.10;5.23;;;2.20;61.50;;;;;;8294029;28;20249;-78
2023/04/05 07:00:29;;;;;;;7.77;4.33;;;2.40;64.50;;;;;;8297097;28;20200;-78
2023/04/05 07:04:35;;;;;;;9.63;4.37;;;2.50;64.50;;;;;;8316480;28;20187;-77
2023/04/05 07:08:48;;;;;;;6.33;4.27;;;2.50;50.20;;;;;;8303698;28;20193;-75
2023/04/05 07:12:52;;;;;;;6.87;3.97;;;2.70;39.00;;;;;;8320973;28;20199;-78
2023/04/05 07:16:54;;;;;;;6.70;3.80;;;2.80;30.30;;;;;;8293783;28;20203;-76
2023/04/05 07:20:59;;;;;;;6.30;4.07;;;2.90;29.30;;;;;;8293626;28;20189;-76
2023/04/05 07:25:04;;;;;;;6.93;4.23;;;2.60;13.40;;;;;;8282896;28;20199;-77
2023/04/05 07:29:10;;;;;;;7.20;4.67;;;2.40;40.20;;;;;;8282697;28;20325;-78
2023/04/05 07:33:11;;;;;;;7.10;4.57;;;2.40;25.40;;;;;;8314450;28;20187;-76
2023/04/05 07:37:13;;;;;;;7.97;4.60;;;2.70;32.40;;;;;;8296658;28;20223;-78
2023/04/05 07:41:17;;;;;;;8.27;5.13;;;3.10;9.40;;;;;;8293402;28;20317;-76
2023/04/05 07:45:18;;;;;;;9.43;4.70;;;3.20;10.00;;;;;;8288775;28;20219;-77
2023/04/05 07:49:27;;;;;;;11.67;5.43;;;3.00;8.60;;;;;;8295284;28;20231;-76
2023/04/05 07:53:28;;;;;;;9.33;5.63;;;3.00;1.00;;;;;;8294350;28;20190;-78
2023/04/05 07:57:29;;;;;;;6.83;3.27;;;3.00;21.40;;;;;;8317429;28;20214;-78
2023/04/05 08:01:36;;;;;;;6.23;3.30;;;3.30;1.00;;;;;;8312270;28;20198;-79
2023/04/05 08:05:39;;;;;;;6.63;3.53;;;3.50;1.00;;;;;;8331138;28;20194;-77
2023/04/05 08:09:40;;;;;;;6.13;3.50;;;3.90;1.00;;;;;;8333824;28;20204;-77
2023/04/05 08:13:51;;;;;;;5.00;3.00;;;3.80;1.00;;;;;;8335183;28;20285;-80
2023/04/05 08:17:55;;;;;;;3.97;3.20;;;4.20;1.00;;;;;;8314176;28;20185;-77
2023/04/05 08:21:58;;;;;;;5.93;3.77;;;4.10;1.00;;;;;;8305319;28;20185;-80
2023/04/05 08:25:59;;;;;;;6.07;3.00;;;4.10;1.00;;;;;;8301811;28;20229;-78
2023/04/05 08:30:00;;;;;;;6.70;3.10;;;4.10;1.00;;;;;;8305265;28;20202;-79
2023/04/05 08:34:01;;;;;;;6.63;2.77;;;4.00;1.00;;;;;;8301036;28;20196;-79
2023/04/05 08:38:03;;;;;;;6.50;2.53;;;4.20;1.00;;;;;;8301705;28;20206;-78
2023/04/05 08:42:26;;;;;;;5.97;3.30;;;4.50;1.00;;;;;;8297960;28;20183;-79
2023/04/05 08:46:33;;;;;;;5.20;3.00;;;4.60;1.00;;;;;;8285832;28;20197;-78
2023/04/05 08:50:34;;;;;;;5.43;2.20;;;4.50;1.00;;;;;;8297861;28;20289;-78
2023/04/05 08:54:38;;;;;;;4.07;2.27;;;4.40;1.00;;;;;;8295812;28;20210;-78
2023/04/05 08:58:39;;;;;;;4.50;1.80;;;4.40;1.00;;;;;;8294593;28;20206;-80
2023/04/05 09:02:43;;;;;;;3.47;1.80;;;4.50;1.00;;;;;;8294271;28;20210;-80
2023/04/05 09:06:46;;;;;;;4.20;1.80;;;4.60;1.00;;;;;;8296119;28;20185;-79
2023/04/05 09:10:52;;;;;;;4.20;2.17;;;4.60;1.00;;;;;;8297771;28;20297;-79
2023/04/05 09:14:58;;;;;;;3.03;1.70;;;4.70;1.00;;;;;;8275448;28;20186;-76
2023/04/05 09:18:59;;;;;;;5.87;2.33;;;4.90;1.00;;;;;;8313153;28;20193;-77
2023/04/05 09:23:00;;;;;;;3.33;1.77;;;5.40;1.00;;;;;;8295819;28;20192;-76
2023/04/05 09:27:18;;;;;;;2.73;2.00;;;5.90;1.00;;;;;;8295613;28;20186;-77
2023/04/05 09:31:34;;;;;;;4.30;2.00;;;5.80;1.00;;;;;;8276341;28;20300;-77
2023/04/05 09:35:35;;;;;;;4.10;1.90;;;5.70;1.00;;;;;;8314024;28;20193;-76
2023/04/05 09:39:36;;;;;;;3.43;1.83;;;5.70;1.00;;;;;;8298502;28;20182;-77
2023/04/05 09:43:39;;;;;;;3.70;1.60;;;5.90;1.00;;;;;;8304279;28;20257;-76
2023/04/05 09:47:41;;;;;;;2.43;1.80;;;6.20;1.00;;;;;;8319950;28;20185;-77
2023/04/05 09:51:45;;;;;;;5.93;1.90;;;6.70;1.00;;;;;;8315555;28;20241;-77
2023/04/05 09:55:46;;;;;;;2.73;1.67;;;6.20;1.00;;;;;;8301368;28;20211;-78
2023/04/05 09:59:47;;;;;;;3.30;1.93;;;6.10;1.00;;;;;;8296697;28;20248;-77
2023/04/05 10:03:49;;;;;;;5.77;1.90;;;6.30;1.00;;;;;;8291462;28;20190;-76
2023/04/05 10:07:51;;;;;;;3.47;1.93;;;6.50;1.00;;;;;;8316746;28;20194;-76
2023/04/05 10:12:01;;;;;;;4.97;2.27;;;6.40;1.00;;;;;;8331081;28;20297;-76
2023/04/05 10:16:07;;;;;;;4.90;2.40;;;6.10;1.00;;;;;;8324921;28;20183;-77
2023/04/05 10:20:18;;;;;;;3.90;2.10;;;5.90;1.00;;;;;;8345947;28;20221;-77
2023/04/05 10:24:48;;;;;;;5.37;1.90;;;5.70;1.00;;;;;;8315858;28;20187;-77
2023/04/05 10:29:01;;;;;;;3.50;2.07;;;5.70;1.00;;;;;;8300451;28;20198;-77
2023/04/05 10:33:24;;;;;;;3.57;2.00;;;6.20;1.00;;;;;;8315936;28;20182;-76
2023/04/05 10:37:41;;;;;;;4.03;2.03;;;6.40;1.00;;;;;;8296185;28;20199;-77
2023/04/05 10:41:48;;;;;;;3.20;1.90;;;6.20;1.00;;;;;;8313452;28;20191;-78
2023/04/05 10:45:53;;;;;;;5.63;2.67;;;6.20;1.00;;;;;;8295093;28;20215;-77
2023/04/05 10:49:59;;;;;;;3.10;2.07;;;5.90;1.00;;;;;;8292811;28;20221;-77
2023/04/05 10:54:06;;;;;;;4.23;3.00;;;6.00;1.00;;;;;;8302514;28;20186;-76
2023/04/05 10:58:08;;;;;;;3.60;2.00;;;6.40;1.00;;;;;;8320100;28;20199;-78
2023/04/05 11:02:14;;;;;;;4.00;1.77;;;7.40;1.00;;;;;;8310771;28;20191;-77
2023/04/05 11:06:21;;;;;;;4.80;1.80;;;8.10;1.00;;;;;;8312236;28;20190;-77
2023/04/05 11:10:27;;;;;;;3.33;2.13;;;8.10;1.00;;;;;;8322830;28;20203;-78
2023/04/05 11:14:35;;;;;;;3.23;1.63;;;7.20;1.00;;;;;;8302034;28;20183;-77
2023/04/05 11:18:50;;;;;;;4.80;2.13;;;6.40;1.00;;;;;;8300769;28;20232;-76
2023/04/05 11:22:53;;;;;;;3.67;1.70;;;6.30;1.00;;;;;;8316502;28;20183;-77
2023/04/05 11:26:56;;;;;;;3.87;1.93;;;6.30;1.00;;;;;;8299533;28;20233;-76
2023/04/05 11:31:10;;;;;;;3.13;1.60;;;6.40;1.00;;;;;;8312765;28;20248;-76
2023/04/05 11:35:22;;;;;;;5.70;1.87;;;6.20;1.00;;;;;;8311863;28;20178;-77
2023/04/05 11:39:23;;;;;;;3.33;2.47;;;6.00;1.00;;;;;;8295869;28;20195;-76
2023/04/05 11:43:28;;;;;;;4.10;1.80;;;6.10;1.00;;;;;;8303805;28;20229;-77
2023/04/05 11:47:30;;;;;;;3.27;1.73;;;6.10;1.00;;;;;;8305769;28;20186;-77
2023/04/05 11:51:32;;;;;;;5.10;2.13;;;5.90;1.00;;;;;;8310867;28;20214;-77
2023/04/05 11:55:34;;;;;;;2.63;2.03;;;6.00;1.00;;;;;;8294440;28;20236;-77
2023/04/05 11:59:36;;;;;;;2.73;1.70;;;5.90;1.00;;;;;;8296916;28;20293;-76
2023/04/05 12:03:37;;;;;;;5.83;2.40;;;6.10;1.00;;;;;;8294924;28;20195;-76
2023/04/05 12:07:38;;;;;;;3.00;1.50;;;6.10;1.00;;;;;;8309286;28;20194;-76
2023/04/05 12:11:40;;;;;;;2.87;1.63;;;6.10;1.00;;;;;;8292475;28;20233;-78
2023/04/05 12:15:48;;;;;;;2.53;1.70;;;5.80;1.00;;;;;;8293085;28;20189;-77
2023/04/05 12:19:49;;;;;;;3.10;1.80;;;5.70;1.00;;;;;;8305886;28;20254;-76
2023/04/05 12:23:51;;;;;;;5.07;2.13;;;5.60;1.00;;;;;;8291116;28;20198;-77
2023/04/05 12:27:52;;;;;;;3.53;2.13;;;5.40;1.00;;;;;;8306055;28;20248;-76
2023/04/05 12:31:56;;;;;;;3.20;1.63;;;5.00;1.00;;;;;;8288897;28;20301;-76
2023/04/05 12:35:57;;;;;;;3.13;1.60;;;4.40;19.00;;;;;;8308377;28;20213;-77
2023/04/05 12:40:02;;;;;;;3.47;1.97;;;3.90;83.30;;;;;;8294152;28;20227;-78
2023/04/05 12:44:36;;;;;;;3.07;1.67;;;4.00;97.60;;;;;;8285044;28;20190;-77
2023/04/05 12:48:41;;;;;;;3.70;1.90;;;4.60;99.90;;;;;;8307092;28;20194;-78
2023/04/05 12:53:21;;;;;;;5.13;2.30;;;5.30;95.90;;;;;;8291920;28;20214;-78
2023/04/05 12:57:31;;;;;;;3.30;1.90;;;5.80;85.10;;;;;;8286111;28;20271;-78
2023/04/05 13:01:33;;;;;;;1.60;1.13;;;6.10;68.10;;;;;;8287624;28;20202;-77
2023/04/05 13:05:34;;;;;;;3.93;1.40;;;6.20;38.20;;;;;;8290621;28;20233;-76
2023/04/05 13:09:38;;;;;;;2.27;1.20;;;6.20;26.10;;;;;;8285470;28;20214;-77
2023/04/05 13:13:42;;;;;;;2.83;1.33;;;6.50;16.90;;;;;;8290650;28;20234;-77
2023/04/05 13:17:48;;;;;;;3.27;1.33;;;6.90;1.00;;;;;;8291478;28;20189;-77
2023/04/05 13:21:49;;;;;;;2.13;0.90;;;7.30;1.00;;;;;;8290721;28;20339;-77
2023/04/05 13:25:50;;;;;;;2.17;1.20;;;7.90;1.00;;;;;;8308987;28;20265;-77
2023/04/05 13:29:51;;;;;;;2.40;1.37;;;8.40;1.00;;;;;;8287404;28;20240;-76
2023/04/05 13:33:53;;;;;;;2.40;1.33;;;8.20;1.00;;;;;;8297059;28;20193;-76
2023/04/05 13:37:57;;;;;;;2.83;1.10;;;8.50;1.00;;;;;;8297212;28;20178;-77
2023/04/05 13:42:00;;;;;;;1.67;0.90;;;8.80;1.00;;;;;;8306001;28;20191;-78
2023/04/05 13:46:10;;;;;;;5.03;1.43;;;8.30;1.00;;;;;;8324342;28;20187;-76
2023/04/05 13:50:11;;;;;;;2.90;1.60;;;7.10;1.00;;;;;;8322518;28;20230;-77
2023/04/05 13:59:31;;;;;;;2.87;1.33;;;6.60;1.00;;;;;;8299339;28;20242;-78
2023/04/05 14:03:32;;;;;;;2.03;1.50;;;6.30;1.00;;;;;;8312742;28;20206;-78
2023/04/05 14:07:42;;;;;;;6.97;3.83;;;6.10;1.00;;;;;;8310258;28;20201;-78
2023/04/05 14:11:43;;;;;;;12.57;7.20;;;6.10;1.00;;;;;;8301053;28;20203;-78
2023/04/05 14:16:07;;;;;;;5.63;2.73;;;6.00;1.00;;;;;;8301608;28;20236;-77
2023/04/05 14:20:20;;;;;;;3.00;1.57;;;6.10;1.00;;;;;;8295983;28;20202;-78
2023/04/05 14:24:22;;;;;;;4.80;2.43;;;6.10;1.00;;;;;;8295539;28;20191;-78
2023/04/05 14:28:23;;;;;;;5.13;2.23;;;6.30;1.00;;;;;;8292142;28;20210;-78
2023/04/05 14:32:27;;;;;;;3.07;2.00;;;6.30;1.00;;;;;;8298636;28;20229;-78
2023/04/05 14:36:28;;;;;;;3.13;1.40;;;6.50;1.00;;;;;;8297252;28;20186;-77
2023/04/05 14:40:30;;;;;;;2.83;1.97;;;6.70;1.00;;;;;;8288539;28;20185;-77
2023/04/05 14:44:31;;;;;;;3.30;2.00;;;6.70;1.00;;;;;;8297265;28;20213;-77
2023/04/05 14:48:48;;;;;;;3.67;1.93;;;6.70;1.00;;;;;;8308258;28;20197;-77
2023/04/05 14:52:52;;;;;;;4.53;2.20;;;6.60;1.00;;;;;;8300989;28;20264;-77
2023/04/05 14:56:53;;;;;;;3.70;1.90;;;6.70;1.00;;;;;;8296765;28;20289;-77
2023/04/05 15:00:58;;;;;;;2.47;1.57;;;6.70;1.00;;;;;;8303355;28;20213;-77
2023/04/05 15:05:01;;;;;;;5.57;2.70;;;6.60;1.00;;;;;;8307666;28;20193;-78
2023/04/05 15:09:02;;;;;;;6.17;2.17;;;6.40;1.00;;;;;;8299623;28;20207;-77
2023/04/05 15:13:03;;;;;;;16.37;9.83;;;6.30;1.00;;;;;;8299439;28;20190;-77
2023/04/05 15:17:05;;;;;;;1.90;1.30;;;6.30;1.00;;;;;;8315720;28;20269;-77
2023/04/05 15:21:06;;;;;;;4.87;2.60;;;6.30;1.00;;;;;;8312172;28;20206;-77
2023/04/05 15:25:10;;;;;;;5.97;2.20;;;6.40;1.00;;;;;;8303726;28;20202;-78
2023/04/05 15:29:11;;;;;;;1.57;1.10;;;6.80;1.00;;;;;;8297488;28;20260;-76
2023/04/05 15:33:16;;;;;;;1.57;1.23;;;6.60;1.00;;;;;;8305815;28;20199;-79
2023/04/05 15:37:20;;;;;;;2.50;1.40;;;6.30;1.00;;;;;;8305371;28;20282;-78
2023/04/05 15:41:21;;;;;;;1.93;1.10;;;6.10;1.00;;;;;;8302786;28;20295;-78
2023/04/05 15:45:32;;;;;;;2.57;1.20;;;6.10;1.00;;;;;;8295653;28;20190;-78
2023/04/05 15:49:39;;;;;;;2.67;1.17;;;6.10;1.00;;;;;;8287616;28;20210;-78
2023/04/05 15:53:44;;;;;;;2.40;1.33;;;6.20;1.00;;;;;;8301285;28;20218;-78
2023/04/05 15:57:48;;;;;;;3.03;1.67;;;6.30;1.00;;;;;;8285453;28;20324;-77
2023/04/05 16:01:49;;;;;;;1.43;0.83;;;6.60;1.00;;;;;;8297791;28;20274;-78
2023/04/05 16:05:50;;;;;;;1.57;1.03;;;6.80;1.00;;;;;;8302085;28;20186;-78
2023/04/05 16:09:52;;;;;;;1.10;0.87;;;6.70;1.00;;;;;;8294562;28;20218;-77
2023/04/05 16:13:53;;;;;;;1.13;1.00;;;6.70;1.00;;;;;;8289923;28;20179;-76
2023/04/05 16:18:00;;;;;;;3.63;1.03;;;6.40;1.00;;;;;;8311742;28;20265;-76
2023/04/05 16:22:06;;;;;;;2.50;0.97;;;6.30;1.00;;;;;;8316972;28;20233;-76
2023/04/05 16:26:07;;;;;;;2.30;0.90;;;6.30;1.00;;;;;;8289391;28;20194;-77
2023/04/05 16:30:09;;;;;;;2.73;1.27;;;6.20;1.00;;;;;;8301672;28;20206;-76
2023/04/05 16:34:09;;;;;;;2.60;1.20;;;6.20;1.00;;;;;;8307970;28;20190;-75
2023/04/05 16:38:11;;;;;;;3.47;1.20;;;5.90;1.00;;;;;;8338313;28;20192;-77
2023/04/05 16:42:11;;;;;;;2.03;1.10;;;5.70;1.00;;;;;;8335153;28;20217;-75
2023/04/05 16:46:13;;;;;;;1.47;1.10;;;5.40;1.00;;;;;;8322937;28;20197;-74
2023/04/05 16:50:14;;;;;;;3.13;1.10;;;5.20;1.00;;;;;;8323072;28;20210;-75
2023/04/05 16:54:15;;;;;;;7.90;3.93;;;5.00;1.00;;;;;;8315561;28;20182;-74
2023/04/05 16:58:16;;;;;;;3.37;2.30;;;4.80;1.00;;;;;;8331181;28;20222;-74
2023/04/05 17:02:18;;;;;;;3.90;1.33;;;4.60;1.00;;;;;;8311121;28;20268;-75
2023/04/05 17:06:28;;;;;;;1.33;0.87;;;4.40;1.00;;;;;;8320470;28;20218;-75
2023/04/05 17:10:29;;;;;;;2.63;1.20;;;4.20;1.00;;;;;;8316348;28;20219;-75
2023/04/05 17:14:30;;;;;;;2.40;1.50;;;4.00;1.00;;;;;;8292304;28;20264;-75
2023/04/05 17:18:37;;;;;;;1.97;1.20;;;3.80;1.00;;;;;;8288103;28;20206;-75
2023/04/05 17:22:40;;;;;;;2.03;0.90;;;3.60;1.00;;;;;;8293574;28;20226;-75
2023/04/05 17:26:41;;;;;;;2.90;1.00;;;3.40;1.00;;;;;;8307622;28;20202;-74
2023/04/05 17:30:42;;;;;;;1.70;0.80;;;3.30;1.00;;;;;;8291018;28;20214;-75
2023/04/05 17:34:43;;;;;;;3.33;1.17;;;3.00;3.60;;;;;;8289342;28;20191;-75
2023/04/05 17:38:45;;;;;;;2.80;0.90;;;2.90;24.90;;;;;;8294909;28;20206;-74
2023/04/05 17:42:45;;;;;;;2.30;1.20;;;2.80;34.80;;;;;;8310944;28;20230;-75
2023/04/05 17:46:50;;;;;;;1.67;1.00;;;2.60;37.00;;;;;;8312660;28;20200;-74
2023/04/05 17:50:51;;;;;;;1.17;0.80;;;2.50;41.60;;;;;;8291204;28;20211;-75
2023/04/05 17:54:53;;;;;;;1.90;1.23;;;2.40;49.40;;;;;;8289743;28;20192;-76
2023/04/05 17:58:55;;;;;;;165.37;46.43;;;2.20;59.80;;;;;;8294941;28;20212;-75
2023/04/05 18:02:58;;;;;;;232.50;69.63;;;2.00;80.30;;;;;;8307330;28;20297;-75
2023/04/05 18:07:00;;;;;;;157.93;54.80;;;1.90;99.60;;;;;;8308471;28;20204;-75
2023/04/05 18:11:04;;;;;;;127.30;50.37;;;1.80;99.90;;;;;;8289880;28;20221;-75
2023/04/05 18:15:08;;;;;;;69.77;30.67;;;1.70;99.90;;;;;;8282818;28;20192;-75
2023/04/05 18:19:09;;;;;;;33.67;14.47;;;1.50;99.90;;;;;;8292203;28;20214;-76
2023/04/05 18:23:14;;;;;;;20.77;8.20;;;1.20;99.90;;;;;;8273221;28;20199;-76
2023/04/05 18:27:17;;;;;;;7.93;4.40;;;0.90;99.90;;;;;;8288918;28;20253;-79
2023/04/05 18:31:18;;;;;;;4.43;2.47;;;0.60;99.90;;;;;;8293241;28;20219;-77
2023/04/05 18:35:20;;;;;;;3.23;1.50;;;0.50;99.90;;;;;;8288039;28;20248;-77
2023/04/05 18:39:22;;;;;;;2.40;1.13;;;0.30;99.90;;;;;;8291737;28;20277;-77
2023/04/05 18:43:24;;;;;;;2.57;1.37;;;0.10;99.90;;;;;;8290097;28;20186;-77
2023/04/05 18:47:25;;;;;;;3.10;1.70;;;-0.10;99.90;;;;;;8288753;28;20297;-76
2023/04/05 18:51:27;;;;;;;3.13;1.80;;;-0.20;99.90;;;;;;8296448;28;20328;-78
2023/04/05 18:55:30;;;;;;;4.40;2.27;;;-0.40;99.90;;;;;;8294245;28;20205;-78
2023/04/05 18:59:50;;;;;;;4.10;1.97;;;-0.50;99.90;;;;;;8296207;28;20210;-77
2023/04/05 19:03:51;;;;;;;3.03;1.33;;;-0.60;99.90;;;;;;8289957;28;20197;-77
2023/04/05 19:08:02;;;;;;;6.27;2.23;;;-0.70;1.00;;;;;;8292185;28;20196;-77
2023/04/05 19:12:06;;;;;;;9.37;4.13;;;-0.80;1.00;;;;;;8290174;28;20221;-77
2023/04/05 19:16:07;;;;;;;6.77;3.60;;;-0.90;1.00;;;;;;8290921;28;20190;-77
2023/04/05 19:20:09;;;;;;;6.13;3.40;;;-1.00;1.00;;;;;;8288738;28;20250;-79
2023/04/05 19:24:12;;;;;;;5.10;3.10;;;-1.10;1.00;;;;;;8283360;28;20204;-78
2023/04/05 19:28:14;;;;;;;5.77;2.90;;;-1.20;1.00;;;;;;8285066;28;20259;-79
2023/04/05 19:32:16;;;;;;;7.23;3.57;;;-1.30;1.00;;;;;;8293716;28;20303;-79
2023/04/05 19:36:17;;;;;;;5.77;3.30;;;-1.40;1.00;;;;;;8292403;28;20200;-79
2023/04/05 19:40:25;;;;;;;5.70;3.20;;;-1.50;1.00;;;;;;8295251;28;20265;-78
2023/04/05 19:45:07;;;;;;;6.13;3.30;;;-1.60;1.00;;;;;;8306575;28;20189;-79
2023/04/05 19:49:11;;;;;;;5.73;2.77;;;-1.70;10.20;;;;;;8282308;28;20199;-78
2023/04/05 19:54:07;;;;;;;3.83;2.40;;;-1.70;51.40;;;;;;8323736;28;20190;-77
2023/04/05 19:58:10;;;;;;;4.93;2.77;;;-1.80;82.60;;;;;;8249578;28;20204;-78
2023/04/05 20:02:32;;;;;;;5.17;2.73;;;-1.90;99.90;;;;;;8333147;28;20200;-79
2023/04/05 20:06:33;;;;;;;3.83;2.30;;;-1.90;99.90;;;;;;8322230;28;20196;-77
2023/04/05 20:10:46;;;;;;;2.97;1.80;;;-2.00;99.90;;;;;;8331132;28;20214;-78
2023/04/05 20:14:57;;;;;;;3.03;1.83;;;-2.10;99.90;;;;;;8303117;28;20274;-78
2023/04/05 20:19:02;;;;;;;3.03;2.27;;;-2.20;99.90;;;;;;8306767;28;20194;-78
2023/04/05 20:23:06;;;;;;;4.67;2.07;;;-2.20;99.90;;;;;;8290389;28;20197;-78
2023/04/05 20:27:10;;;;;;;4.23;2.20;;;-2.30;99.90;;;;;;8280440;28;20195;-78
2023/04/05 20:31:28;;;;;;;2.03;1.37;;;-2.40;99.90;;;;;;8265006;28;20211;-78
2023/04/05 20:35:37;;;;;;;3.57;1.60;;;-2.50;99.90;;;;;;8282218;28;20192;-78
2023/04/05 20:39:38;;;;;;;2.30;1.40;;;-2.60;99.90;;;;;;8279486;28;20195;-79
2023/04/05 20:43:43;;;;;;;2.77;1.63;;;-2.70;99.90;;;;;;8281043;28;20301;-78
2023/04/05 20:47:44;;;;;;;2.03;1.37;;;-2.70;99.90;;;;;;8280680;28;20191;-78
2023/04/05 20:51:46;;;;;;;2.67;1.60;;;-2.80;99.90;;;;;;8286938;28;20250;-79
2023/04/05 20:55:49;;;;;;;2.53;1.60;;;-2.90;99.90;;;;;;8277517;28;20290;-78
2023/04/05 21:00:00;;;;;;;2.90;1.57;;;-2.90;1.00;;;;;;8278570;28;20248;-79
2023/04/05 21:04:02;;;;;;;1.63;1.20;;;-3.00;1.00;;;;;;8289677;28;20190;-78
2023/04/05 21:08:04;;;;;;;2.67;1.80;;;-3.00;1.00;;;;;;8288247;28;20201;-78
2023/04/05 21:12:08;;;;;;;2.70;1.60;;;-3.10;1.00;;;;;;8282358;28;20327;-78
2023/04/05 21:16:09;;;;;;;3.27;1.50;;;-3.10;1.00;;;;;;8284502;28;20190;-78
2023/04/05 21:20:10;;;;;;;2.57;1.90;;;-3.10;15.70;;;;;;8282738;28;20187;-78
2023/04/05 21:24:11;;;;;;;3.60;1.57;;;-3.20;48.10;;;;;;8299970;28;20201;-78
2023/04/05 21:28:15;;;;;;;3.80;1.67;;;-3.20;99.90;;;;;;8283298;28;20193;-78
2023/04/05 21:32:16;;;;;;;2.43;1.50;;;-3.30;93.90;;;;;;8255953;28;20210;-81
2023/04/05 21:36:17;;;;;;;2.77;1.63;;;-3.30;99.90;;;;;;8299974;28;20197;-81